createdAt,value
2023-02-05T00:01:35.689Z,75.30
2023-02-05T00:04:03.375Z,75.00
2023-02-05T00:06:31.074Z,74.60
2023-02-05T00:08:58.815Z,74.40
2023-02-05T00:11:26.769Z,74.30
2023-02-05T00:13:54.474Z,73.90
2023-02-05T00:16:23.332Z,74.20
2023-02-05T00:18:52.657Z,74.30
2023-02-05T00:21:20.767Z,74.20
2023-02-05T00:23:48.512Z,72.90
2023-02-05T00:26:16.304Z,72.60
2023-02-05T00:28:44.868Z,72.10
2023-02-05T00:31:13.547Z,72.20
2023-02-05T00:33:41.434Z,72.30
2023-02-05T00:36:12.653Z,71.80
2023-02-05T00:38:40.771Z,71.40
2023-02-05T00:41:08.442Z,71.50
2023-02-05T00:43:38.441Z,71.30
2023-02-05T00:46:06.428Z,70.80
2023-02-05T00:48:34.181Z,70.10
2023-02-05T00:51:01.865Z,70.20
2023-02-05T00:53:30.837Z,70.70
2023-02-05T00:55:58.621Z,70.10
2023-02-05T00:58:26.490Z,69.90
2023-02-05T01:00:54.225Z,69.20
2023-02-05T01:03:21.916Z,69.10
2023-02-05T01:05:49.617Z,69.00
2023-02-05T01:08:17.375Z,68.40
2023-02-05T01:10:47.285Z,68.00
2023-02-05T01:13:17.800Z,67.60
2023-02-05T01:15:45.920Z,67.80
2023-02-05T01:18:13.838Z,67.90
2023-02-05T01:20:41.847Z,68.00
2023-02-05T01:23:09.746Z,67.70
2023-02-05T01:25:37.468Z,67.70
2023-02-05T01:28:06.762Z,68.00
2023-02-05T01:30:34.599Z,67.40
2023-02-05T01:33:02.296Z,67.80
2023-02-05T01:35:30.031Z,67.10
2023-02-05T01:37:57.708Z,66.50
2023-02-05T01:40:25.411Z,66.00
2023-02-05T01:42:53.070Z,66.10
2023-02-05T01:45:50.721Z,65.90
2023-02-05T01:48:20.388Z,66.60
2023-02-05T01:50:50.189Z,64.90
2023-02-05T01:53:19.844Z,64.50
2023-02-05T01:55:51.956Z,64.70
2023-02-05T01:58:19.651Z,64.70
2023-02-05T02:00:48.920Z,64.30
2023-02-05T02:03:16.583Z,64.10
2023-02-05T02:05:44.338Z,64.10
2023-02-05T02:08:12.390Z,63.80
2023-02-05T02:10:40.518Z,63.60
2023-02-05T02:13:08.261Z,63.80
2023-02-05T02:15:36.448Z,64.10
2023-02-05T02:18:20.186Z,64.10
2023-02-05T02:20:49.508Z,63.80
2023-02-05T02:23:21.698Z,63.80
2023-02-05T02:26:01.386Z,63.60
2023-02-05T02:28:31.041Z,63.60
2023-02-05T02:31:02.750Z,63.00
2023-02-05T02:33:32.903Z,62.60
2023-02-05T02:36:01.714Z,63.40
2023-02-05T02:38:31.225Z,62.90
2023-02-05T02:41:02.596Z,63.00
2023-02-05T02:43:33.007Z,62.90
2023-02-05T02:46:02.040Z,63.10
2023-02-05T02:48:29.908Z,62.50
2023-02-05T02:50:58.333Z,62.50
2023-02-05T02:53:27.566Z,62.60
2023-02-05T02:55:55.992Z,62.60
2023-02-05T02:58:24.983Z,62.50
2023-02-05T03:00:56.479Z,62.20
2023-02-05T03:03:25.164Z,62.10
2023-02-05T03:05:52.954Z,62.30
2023-02-05T03:08:22.566Z,62.20
2023-02-05T03:10:53.891Z,62.00
2023-02-05T03:13:21.646Z,62.00
2023-02-05T03:15:57.068Z,62.30
2023-02-05T03:18:24.861Z,62.00
2023-02-05T03:20:54.284Z,62.50
2023-02-05T03:23:22.215Z,62.40
2023-02-05T03:25:49.971Z,63.00
2023-02-05T03:28:22.251Z,62.20
2023-02-05T03:30:55.253Z,63.10
2023-02-05T03:33:35.765Z,62.20
2023-02-05T03:36:09.566Z,62.00
2023-02-05T03:38:44.038Z,62.50
2023-02-05T03:41:16.631Z,62.20
2023-02-05T03:43:49.387Z,62.50
2023-02-05T03:46:19.384Z,62.10
2023-02-05T03:48:56.156Z,62.20
2023-02-05T03:51:27.859Z,62.10
2023-02-05T03:54:02.933Z,62.00
2023-02-05T03:56:35.062Z,62.10
2023-02-05T03:59:03.759Z,62.20
2023-02-05T04:01:31.546Z,62.70
2023-02-05T04:04:01.366Z,62.50
2023-02-05T04:06:29.914Z,62.50
2023-02-05T04:08:57.683Z,62.50
2023-02-05T04:11:26.139Z,62.60
2023-02-05T04:13:54.392Z,62.70
2023-02-05T04:16:22.206Z,62.60
2023-02-05T04:18:50.029Z,62.80
2023-02-05T04:21:19.469Z,62.50
2023-02-05T04:23:47.181Z,62.40
2023-02-05T04:26:14.940Z,62.60
2023-02-05T04:28:50.408Z,62.60
2023-02-05T04:31:18.498Z,62.70
2023-02-05T04:33:46.190Z,62.70
2023-02-05T04:36:15.758Z,62.80
2023-02-05T04:38:45.115Z,62.70
2023-02-05T04:41:12.870Z,62.80
2023-02-05T04:43:40.554Z,62.80
2023-02-05T04:46:08.708Z,63.00
2023-02-05T04:48:36.624Z,63.10
2023-02-05T04:51:07.507Z,63.20
2023-02-05T04:53:35.202Z,63.20
2023-02-05T04:56:09.008Z,63.50
2023-02-05T04:58:36.843Z,63.40
2023-02-05T05:01:04.643Z,63.50
2023-02-05T05:03:32.458Z,63.60
2023-02-05T05:06:04.567Z,63.50
2023-02-05T05:08:32.335Z,63.50
2023-02-05T05:11:00.302Z,63.60
2023-02-05T05:13:29.316Z,63.60
2023-02-05T05:15:57.272Z,63.60
2023-02-05T05:18:24.996Z,63.60
2023-02-05T05:20:52.650Z,63.70
2023-02-05T05:23:20.385Z,64.70
2023-02-05T05:25:48.485Z,63.80
2023-02-05T05:28:17.144Z,64.00
2023-02-05T05:30:46.676Z,63.90
2023-02-05T05:33:14.420Z,63.90
2023-02-05T05:35:42.225Z,64.00
2023-02-05T05:38:09.928Z,63.90
2023-02-05T05:40:55.238Z,64.00
2023-02-05T05:43:40.811Z,64.00
2023-02-05T05:46:09.929Z,63.90
2023-02-05T05:48:37.650Z,64.00
2023-02-05T05:51:05.724Z,64.00
2023-02-05T05:53:33.543Z,64.00
2023-02-05T05:56:01.205Z,64.20
2023-02-05T05:58:28.854Z,64.20
2023-02-05T06:00:56.521Z,63.90
2023-02-05T06:03:25.844Z,64.10
2023-02-05T06:05:53.619Z,64.00
2023-02-05T06:08:21.299Z,64.30
2023-02-05T06:10:48.993Z,64.40
2023-02-05T06:13:16.700Z,64.40
2023-02-05T06:15:44.442Z,64.30
2023-02-05T06:18:12.121Z,65.20
2023-02-05T06:20:41.113Z,64.30
2023-02-05T06:23:08.782Z,64.30
2023-02-05T06:25:36.612Z,64.50
2023-02-05T06:28:04.433Z,64.60
2023-02-05T06:30:32.136Z,64.60
2023-02-05T06:32:59.781Z,64.80
2023-02-05T06:35:27.508Z,64.80
2023-02-05T06:37:56.556Z,64.80
2023-02-05T06:40:25.815Z,64.80
2023-02-05T06:42:53.706Z,64.80
2023-02-05T06:45:21.452Z,64.90
2023-02-05T06:47:49.168Z,65.10
2023-02-05T06:50:17.237Z,65.10
2023-02-05T06:52:45.010Z,65.10
2023-02-05T06:55:14.028Z,65.10
2023-02-05T06:57:41.704Z,65.00
2023-02-05T07:00:11.220Z,65.20
2023-02-05T07:02:39.039Z,65.20
2023-02-05T07:05:07.242Z,65.20
2023-02-05T07:07:34.941Z,65.20
2023-02-05T07:10:02.706Z,65.40
2023-02-05T07:12:31.759Z,65.30
2023-02-05T07:14:59.398Z,65.60
2023-02-05T07:17:27.153Z,65.50
2023-02-05T07:19:54.814Z,65.70
2023-02-05T07:22:22.505Z,65.80
2023-02-05T07:24:50.167Z,65.80
2023-02-05T07:27:17.850Z,65.90
2023-02-05T07:29:46.847Z,66.10
2023-02-05T07:32:14.558Z,65.90
2023-02-05T07:34:43.784Z,65.90
2023-02-05T07:37:12.164Z,65.90
2023-02-05T07:39:39.878Z,66.30
2023-02-05T07:42:07.528Z,66.10
2023-02-05T07:44:46.144Z,66.20
2023-02-05T07:47:13.787Z,66.30
2023-02-05T07:49:41.495Z,66.30
2023-02-05T07:52:09.219Z,66.30
2023-02-05T07:54:36.976Z,66.50
2023-02-05T07:57:06.861Z,66.50
2023-02-05T07:59:34.765Z,66.60
2023-02-05T08:02:03.876Z,66.70
2023-02-05T08:04:31.665Z,66.70
2023-02-05T08:06:59.375Z,66.70
2023-02-05T08:09:27.121Z,66.70
2023-02-05T08:11:54.781Z,66.80
2023-02-05T08:14:22.421Z,66.80
2023-02-05T08:16:50.076Z,66.90
2023-02-05T08:19:19.151Z,67.10
2023-02-05T08:21:46.792Z,67.00
2023-02-05T08:24:14.452Z,67.10
2023-02-05T08:26:42.115Z,67.00
2023-02-05T08:29:09.852Z,67.10
2023-02-05T08:31:37.718Z,67.40
2023-02-05T08:34:05.467Z,68.20
2023-02-05T08:36:34.449Z,67.40
2023-02-05T08:39:02.135Z,67.20
2023-02-05T08:41:29.801Z,67.50
2023-02-05T08:43:57.468Z,67.80
2023-02-05T08:46:28.164Z,67.70
2023-02-05T08:48:59.356Z,67.80
2023-02-05T08:51:27.230Z,67.80
2023-02-05T08:53:56.628Z,67.90
2023-02-05T08:56:24.366Z,67.80
2023-02-05T08:58:52.334Z,67.60
2023-02-05T09:01:20.183Z,67.90
2023-02-05T09:03:47.969Z,66.40
2023-02-05T09:06:16.144Z,66.30
2023-02-05T09:08:43.910Z,69.80
2023-02-05T09:11:13.492Z,67.40
2023-02-05T09:13:41.306Z,64.60
2023-02-05T09:16:11.343Z,67.20
2023-02-05T09:18:39.063Z,64.70
2023-02-05T09:21:07.502Z,66.20
2023-02-05T09:23:35.182Z,64.80
2023-02-05T09:26:03.032Z,65.30
2023-02-05T09:28:32.086Z,63.00
2023-02-05T09:30:59.963Z,64.60
2023-02-05T09:33:27.774Z,62.90
2023-02-05T09:35:55.475Z,60.10
2023-02-05T09:38:23.204Z,60.10
2023-02-05T09:40:56.028Z,58.90
2023-02-05T09:43:42.798Z,60.70
2023-02-05T09:46:12.960Z,58.00
2023-02-05T09:48:50.388Z,56.50
2023-02-05T09:51:20.006Z,54.70
2023-02-05T09:53:49.841Z,54.60
2023-02-05T09:56:17.613Z,42.70
2023-02-05T09:58:48.778Z,45.20
2023-02-05T10:01:20.091Z,48.50
2023-02-05T10:03:49.260Z,50.30
2023-02-05T10:06:57.030Z,50.90
2023-02-05T10:09:33.484Z,53.60
2023-02-05T10:12:04.741Z,57.20
2023-02-05T10:14:39.815Z,58.10
2023-02-05T10:17:20.400Z,59.60
2023-02-05T10:19:55.633Z,62.30
2023-02-05T10:22:27.019Z,60.80
2023-02-05T10:25:02.942Z,63.00
2023-02-05T10:27:36.676Z,64.40
2023-02-05T10:30:07.539Z,64.60
2023-02-05T10:32:44.560Z,67.30
2023-02-05T10:35:19.558Z,63.20
2023-02-05T10:37:50.436Z,64.00
2023-02-05T10:40:19.681Z,64.10
2023-02-05T10:42:48.776Z,66.70
2023-02-05T10:45:19.728Z,64.20
2023-02-05T10:48:04.519Z,67.60
2023-02-05T10:50:37.665Z,68.40
2023-02-05T10:53:05.353Z,69.40
2023-02-05T10:55:33.433Z,71.40
2023-02-05T10:58:01.494Z,70.70
2023-02-05T11:00:31.017Z,75.30
2023-02-05T11:02:59.715Z,73.80
2023-02-05T11:05:34.349Z,73.30
2023-02-05T11:08:02.076Z,72.80
2023-02-05T11:10:31.352Z,71.80
2023-02-05T11:13:00.485Z,71.30
2023-02-05T11:15:31.153Z,72.20
2023-02-05T11:18:00.394Z,74.40
2023-02-05T11:20:31.894Z,74.30
2023-02-05T11:23:16.336Z,75.00
2023-02-05T11:25:50.924Z,76.70
2023-02-05T11:28:24.448Z,78.10
2023-02-05T11:30:53.735Z,74.30
2023-02-05T11:33:27.048Z,75.60
2023-02-05T11:35:56.224Z,77.50
2023-02-05T11:38:29.835Z,73.90
2023-02-05T11:40:58.486Z,72.70
2023-02-05T11:43:28.797Z,72.30
2023-02-05T11:45:58.522Z,72.80
2023-02-05T11:48:35.867Z,72.60
2023-02-05T11:51:03.649Z,72.70
2023-02-05T11:53:32.923Z,72.90
2023-02-05T11:56:02.270Z,74.40
2023-02-05T11:58:37.103Z,75.00
2023-02-05T12:01:08.858Z,75.70
2023-02-05T12:03:36.649Z,77.40
2023-02-05T12:06:11.989Z,75.30
2023-02-05T12:08:43.936Z,77.40
2023-02-05T12:11:25.896Z,76.00
2023-02-05T12:13:59.237Z,77.40
2023-02-05T12:16:37.944Z,78.40
2023-02-05T12:19:11.243Z,74.30
2023-02-05T12:21:43.214Z,77.30
2023-02-05T12:24:29.340Z,68.90
2023-02-05T12:26:59.741Z,73.00
2023-02-05T12:29:39.460Z,74.20
2023-02-05T12:32:13.699Z,72.80
2023-02-05T12:34:45.687Z,73.60
2023-02-05T12:37:25.693Z,70.90
2023-02-05T12:39:54.136Z,67.20
2023-02-05T12:42:32.794Z,70.10
2023-02-05T12:45:20.809Z,61.50
2023-02-05T12:47:57.070Z,57.80
2023-02-05T12:50:44.925Z,58.30
2023-02-05T12:53:21.160Z,55.30
2023-02-05T12:55:53.864Z,56.00
2023-02-05T12:58:21.543Z,56.00
2023-02-05T13:00:50.293Z,56.40
2023-02-05T13:03:22.926Z,55.00
2023-02-05T13:05:51.917Z,51.80
2023-02-05T13:08:21.814Z,52.40
2023-02-05T13:10:51.689Z,51.30
2023-02-05T13:13:22.678Z,51.20
2023-02-05T13:15:55.691Z,51.00
2023-02-05T13:18:26.582Z,49.80
2023-02-05T13:21:13.712Z,49.80
2023-02-05T13:23:59.113Z,51.20
2023-02-05T13:26:48.677Z,50.00
2023-02-05T13:29:16.504Z,50.90
2023-02-05T13:31:48.086Z,51.50
2023-02-05T13:34:17.930Z,50.20
2023-02-05T13:37:24.269Z,48.10
2023-02-05T13:40:16.265Z,51.90
2023-02-05T13:43:17.955Z,52.20
2023-02-05T13:46:03.947Z,54.60
2023-02-05T13:48:54.013Z,58.20
2023-02-05T13:51:39.478Z,59.30
2023-02-05T13:54:18.734Z,59.60
2023-02-05T13:56:49.366Z,61.10
2023-02-05T13:59:18.371Z,66.00
2023-02-05T14:01:51.427Z,65.40
2023-02-05T14:04:21.665Z,68.00
2023-02-05T14:06:57.091Z,67.40
2023-02-05T14:09:27.374Z,69.80
2023-02-05T14:11:56.843Z,68.80
2023-02-05T14:14:27.294Z,71.60
2023-02-05T14:16:55.880Z,71.50
2023-02-05T14:19:26.330Z,71.00
2023-02-05T14:22:03.548Z,71.70
2023-02-05T14:24:45.567Z,71.90
2023-02-05T14:27:56.690Z,72.20
2023-02-05T14:30:48.642Z,61.00
2023-02-05T14:33:36.350Z,67.50
2023-02-05T14:36:46.742Z,64.00
2023-02-05T14:39:23.047Z,68.80
2023-02-05T14:41:53.098Z,68.60
2023-02-05T14:44:23.549Z,70.50
2023-02-05T14:47:03.232Z,71.10
2023-02-05T14:49:36.528Z,70.90
2023-02-05T14:52:07.410Z,70.90
2023-02-05T14:54:42.927Z,69.90
2023-02-05T14:57:13.138Z,67.30
2023-02-05T14:59:43.681Z,70.20
2023-02-05T15:02:49.819Z,70.90
2023-02-05T15:05:18.709Z,70.90
2023-02-05T15:07:46.389Z,72.80
2023-02-05T15:10:17.667Z,71.40
2023-02-05T15:13:00.789Z,71.30
2023-02-05T15:15:32.656Z,77.40
2023-02-05T15:18:07.266Z,75.30
2023-02-05T15:20:36.234Z,72.50
2023-02-05T15:23:27.541Z,67.50
2023-02-05T15:25:59.065Z,70.60
2023-02-05T15:28:29.958Z,67.60
2023-02-05T15:31:10.418Z,67.10
2023-02-05T15:33:45.013Z,64.70
2023-02-05T15:36:18.086Z,57.50
2023-02-05T15:38:49.266Z,57.90
2023-02-05T15:41:18.361Z,62.80
2023-02-05T15:43:58.789Z,66.20
2023-02-05T15:46:26.556Z,74.00
2023-02-05T15:48:54.486Z,70.70
2023-02-05T15:51:27.024Z,67.70
2023-02-05T15:53:56.144Z,61.50
2023-02-05T15:56:26.002Z,64.90
2023-02-05T15:58:54.425Z,65.40
2023-02-05T16:01:24.495Z,65.90
2023-02-05T16:03:52.197Z,66.10
2023-02-05T16:06:20.459Z,65.50
2023-02-05T16:08:48.284Z,65.10
2023-02-05T16:11:31.169Z,64.70
2023-02-05T16:14:13.535Z,65.70
2023-02-05T16:16:42.813Z,63.40
2023-02-05T16:19:15.271Z,65.50
2023-02-05T16:21:44.317Z,61.80
2023-02-05T16:24:18.722Z,62.70
2023-02-05T16:26:49.290Z,59.10
2023-02-05T16:29:25.680Z,58.20
2023-02-05T16:31:58.947Z,59.80
2023-02-05T16:34:27.241Z,53.80
2023-02-05T16:36:58.532Z,57.30
2023-02-05T16:39:27.374Z,55.10
2023-02-05T16:42:04.082Z,56.10
2023-02-05T16:44:32.792Z,48.80
2023-02-05T16:47:14.399Z,50.80
2023-02-05T16:49:42.745Z,51.10
2023-02-05T16:52:30.644Z,52.50
2023-02-05T16:54:58.736Z,50.70
2023-02-05T16:57:34.614Z,52.40
2023-02-05T17:00:03.340Z,51.50
2023-02-05T17:02:35.741Z,53.30
2023-02-05T17:05:04.543Z,53.30
2023-02-05T17:07:32.302Z,53.80
2023-02-05T17:10:12.950Z,56.00
2023-02-05T17:12:49.013Z,56.80
2023-02-05T17:15:28.749Z,57.70
2023-02-05T17:17:56.840Z,58.80
2023-02-05T17:20:25.040Z,59.50
2023-02-05T17:23:09.194Z,59.00
2023-02-05T17:25:38.041Z,61.30
2023-02-05T17:28:07.972Z,60.40
2023-02-05T17:30:36.031Z,57.60
2023-02-05T17:33:10.794Z,59.40
2023-02-05T17:35:38.492Z,61.20
2023-02-05T17:38:06.206Z,61.60
2023-02-05T17:40:34.095Z,62.30
2023-02-05T17:43:01.903Z,63.00
2023-02-05T17:45:32.505Z,63.50
2023-02-05T17:48:00.276Z,64.60
2023-02-05T17:50:28.093Z,64.60
2023-02-05T17:52:55.899Z,65.00
2023-02-05T17:55:23.804Z,65.40
2023-02-05T17:57:51.483Z,65.90
2023-02-05T18:00:20.694Z,66.20
2023-02-05T18:02:49.857Z,66.90
2023-02-05T18:05:18.895Z,67.10
2023-02-05T18:07:47.204Z,67.10
2023-02-05T18:10:15.905Z,67.50
2023-02-05T18:12:43.573Z,67.70
2023-02-05T18:15:11.526Z,68.00
2023-02-05T18:17:39.239Z,68.20
2023-02-05T18:20:08.756Z,68.40
2023-02-05T18:22:36.430Z,68.90
2023-02-05T18:25:04.277Z,68.90
2023-02-05T18:27:31.968Z,69.10
2023-02-05T18:29:59.647Z,69.30
2023-02-05T18:32:27.758Z,69.50
2023-02-05T18:34:55.480Z,69.80
2023-02-05T18:37:26.446Z,69.90
2023-02-05T18:39:54.257Z,70.40
2023-02-05T18:42:23.031Z,70.50
2023-02-05T18:44:50.736Z,70.50
2023-02-05T18:47:18.424Z,70.70
2023-02-05T18:49:46.083Z,70.70
2023-02-05T18:52:14.413Z,71.10
2023-02-05T18:54:43.918Z,71.30
2023-02-05T18:57:12.843Z,71.50
2023-02-05T18:59:41.532Z,71.50
2023-02-05T19:02:10.720Z,71.70
2023-02-05T19:04:38.433Z,72.00
2023-02-05T19:07:06.073Z,71.80
2023-02-05T19:09:33.952Z,72.00
2023-02-05T19:12:03.131Z,72.20
2023-02-05T19:14:30.911Z,72.40
2023-02-05T19:16:58.592Z,72.30
2023-02-05T19:19:26.438Z,72.40
2023-02-05T19:21:54.396Z,72.50
2023-02-05T19:24:22.375Z,72.60
2023-02-05T19:26:51.089Z,72.60
2023-02-05T19:29:20.757Z,72.60
2023-02-05T19:31:49.808Z,72.90
2023-02-05T19:34:17.535Z,72.80
2023-02-05T19:36:45.213Z,73.00
2023-02-05T19:39:13.952Z,73.10
2023-02-05T19:41:41.717Z,73.30
2023-02-05T19:44:09.619Z,73.30
2023-02-05T19:46:41.362Z,73.60
2023-02-05T19:49:12.190Z,73.70
2023-02-05T19:51:39.934Z,73.90
2023-02-05T19:54:07.612Z,74.00
2023-02-05T19:56:37.875Z,74.00
2023-02-05T19:59:05.992Z,74.00
2023-02-05T20:01:34.314Z,74.30
2023-02-05T20:04:08.729Z,74.40
2023-02-05T20:06:36.603Z,74.70
2023-02-05T20:09:05.716Z,74.80
2023-02-05T20:11:33.436Z,74.80
2023-02-05T20:14:01.506Z,74.80
2023-02-05T20:16:29.246Z,75.10
2023-02-05T20:18:58.520Z,75.10
2023-02-05T20:21:27.767Z,75.30
2023-02-05T20:23:55.592Z,75.50
2023-02-05T20:26:23.412Z,75.60
2023-02-05T20:29:11.282Z,75.70
2023-02-05T20:31:42.766Z,75.90
2023-02-05T20:34:11.915Z,76.10
2023-02-05T20:36:40.898Z,76.20
2023-02-05T20:39:08.677Z,76.00
2023-02-05T20:41:36.484Z,76.00
2023-02-05T20:44:04.357Z,76.50
2023-02-05T20:46:32.282Z,76.80
2023-02-05T20:49:00.177Z,77.10
2023-02-05T20:51:27.863Z,77.40
2023-02-05T20:53:57.943Z,77.70
2023-02-05T20:56:26.413Z,79.10
2023-02-05T20:58:54.492Z,78.10
2023-02-05T21:01:23.222Z,78.20
2023-02-05T21:03:51.998Z,78.20
2023-02-05T21:06:19.985Z,78.70
2023-02-05T21:08:48.417Z,78.70
2023-02-05T21:11:17.743Z,79.30
2023-02-05T21:13:45.916Z,78.60
2023-02-05T21:16:13.880Z,78.40
2023-02-05T21:18:41.649Z,78.70
2023-02-05T21:21:10.140Z,79.20
2023-02-05T21:23:37.830Z,79.10
2023-02-05T21:26:06.028Z,79.50
2023-02-05T21:28:35.036Z,78.80
2023-02-05T21:31:03.241Z,79.80
2023-02-05T21:33:30.936Z,79.70
2023-02-05T21:35:58.608Z,79.00
2023-02-05T21:38:30.650Z,78.70
2023-02-05T21:40:58.321Z,78.30
2023-02-05T21:43:25.993Z,78.40
2023-02-05T21:45:55.039Z,78.00
2023-02-05T21:48:22.836Z,77.90
2023-02-05T21:50:50.481Z,77.40
2023-02-05T21:53:18.154Z,77.90
2023-02-05T21:55:45.818Z,77.60
2023-02-05T21:58:13.528Z,77.80
2023-02-05T22:00:41.294Z,77.80
2023-02-05T22:03:10.311Z,77.50
2023-02-05T22:05:38.019Z,77.20
2023-02-05T22:08:07.624Z,76.60
2023-02-05T22:10:35.604Z,77.00
2023-02-05T22:13:03.594Z,76.10
2023-02-05T22:15:31.293Z,76.10
2023-02-05T22:17:58.970Z,76.00
2023-02-05T22:20:28.027Z,75.50
2023-02-05T22:22:55.672Z,74.60
2023-02-05T22:25:23.458Z,74.80
2023-02-05T22:27:51.275Z,73.80
2023-02-05T22:30:19.145Z,73.30
2023-02-05T22:32:46.823Z,73.00
2023-02-05T22:35:14.523Z,72.70
2023-02-05T22:37:43.551Z,73.30
2023-02-05T22:40:12.205Z,71.80
2023-02-05T22:45:24.076Z,71.70
2023-02-05T22:47:51.804Z,69.80
2023-02-05T22:50:19.619Z,70.00
2023-02-05T22:52:47.278Z,69.40
2023-02-05T22:55:14.970Z,69.60
2023-02-05T22:57:42.686Z,68.70
2023-02-05T23:00:11.648Z,68.30
2023-02-05T23:02:40.630Z,68.30
2023-02-05T23:05:08.663Z,67.30
2023-02-05T23:07:36.383Z,68.10
2023-02-05T23:10:04.206Z,68.10
2023-02-05T23:12:31.893Z,68.00
2023-02-05T23:14:59.579Z,67.80
2023-02-05T23:17:27.267Z,67.00
2023-02-05T23:19:56.311Z,67.50
2023-02-05T23:22:23.972Z,66.10
2023-02-05T23:24:51.990Z,66.80
2023-02-05T23:27:19.676Z,66.40
2023-02-05T23:29:47.368Z,65.40
2023-02-05T23:32:15.666Z,65.10
2023-02-05T23:34:43.388Z,64.80
2023-02-05T23:37:12.517Z,64.70
2023-02-05T23:39:40.187Z,63.00
2023-02-05T23:42:07.907Z,63.20
2023-02-05T23:44:35.595Z,62.60
2023-02-05T23:47:03.339Z,62.70
2023-02-05T23:49:30.998Z,62.20
2023-02-05T23:51:59.012Z,61.10
2023-02-05T23:54:27.991Z,61.70
2023-02-05T23:56:55.966Z,59.90
2023-02-05T23:59:23.616Z,60.10
